Terminal Aerodrome Forecast
Issued by NWS Charleston, WV

Home | Current Version | Previous Version | Text Only | Print | Product List | Glossary On
Versions: 1 2 3 4 5 6 7 8 9 10 11 12 13 14 15 16 17 18 19 20 21 22 23 24
000
FTUS41 KRLX 210400 AAB
TAFHTS
TAF AMD
KHTS 210424Z 2104/2124 19003KT 4SM BR SCT070
     FM211300 23008KT 6SM SHRA BR VCTS BKN025CB
     FM211900 25010G15KT P6SM BKN025
     FM212200 27011G16KT P6SM BKN040=

USA.gov is the U.S. government's official web portal to all federal, state and local government web resources and services.